sensor_id;sensor_type;location;lat;lon;timestamp;temperature;humidity
1594;DHT22;790;47.000;16.084;2022-07-10T00:02:17;18.70;99.90
1594;DHT22;790;47.000;16.084;2022-07-10T00:04:44;18.70;99.90
1594;DHT22;790;47.000;16.084;2022-07-10T00:07:11;18.70;99.90
1594;DHT22;790;47.000;16.084;2022-07-10T00:09:38;18.70;99.90
1594;DHT22;790;47.000;16.084;2022-07-10T00:12:05;18.70;99.90
1594;DHT22;790;47.000;16.084;2022-07-10T00:14:33;18.70;99.90
1594;DHT22;790;47.000;16.084;2022-07-10T00:17:01;18.60;99.90
1594;DHT22;790;47.000;16.084;2022-07-10T00:19:29;18.60;99.90
1594;DHT22;790;47.000;16.084;2022-07-10T00:21:56;18.60;99.90
1594;DHT22;790;47.000;16.084;2022-07-10T00:24:23;18.60;99.90
1594;DHT22;790;47.000;16.084;2022-07-10T00:26:50;18.50;99.90
1594;DHT22;790;47.000;16.084;2022-07-10T00:29:17;18.50;99.90
1594;DHT22;790;47.000;16.084;2022-07-10T00:31:44;18.50;99.90
1594;DHT22;790;47.000;16.084;2022-07-10T00:34:11;18.50;99.90
1594;DHT22;790;47.000;16.084;2022-07-10T00:36:40;18.50;99.90
1594;DHT22;790;47.000;16.084;2022-07-10T00:39:08;18.60;99.90
1594;DHT22;790;47.000;16.084;2022-07-10T00:41:35;18.60;99.90
1594;DHT22;790;47.000;16.084;2022-07-10T00:44:03;18.60;99.90
1594;DHT22;790;47.000;16.084;2022-07-10T00:46:31;18.60;99.90
1594;DHT22;790;47.000;16.084;2022-07-10T00:48:59;18.70;99.90
1594;DHT22;790;47.000;16.084;2022-07-10T00:51:29;18.80;99.90
1594;DHT22;790;47.000;16.084;2022-07-10T00:53:57;18.80;99.90
1594;DHT22;790;47.000;16.084;2022-07-10T00:56:27;18.90;99.90
1594;DHT22;790;47.000;16.084;2022-07-10T00:58:54;19.00;99.90
1594;DHT22;790;47.000;16.084;2022-07-10T01:01:21;19.00;99.90
1594;DHT22;790;47.000;16.084;2022-07-10T01:03:50;19.10;99.90
1594;DHT22;790;47.000;16.084;2022-07-10T01:06:17;19.10;99.90
1594;DHT22;790;47.000;16.084;2022-07-10T01:08:45;19.10;99.90
1594;DHT22;790;47.000;16.084;2022-07-10T01:11:14;19.10;99.90
1594;DHT22;790;47.000;16.084;2022-07-10T01:13:42;19.10;99.90
1594;DHT22;790;47.000;16.084;2022-07-10T01:16:10;19.10;99.90
1594;DHT22;790;47.000;16.084;2022-07-10T01:18:37;19.10;99.90
1594;DHT22;790;47.000;16.084;2022-07-10T01:21:06;19.10;99.90
1594;DHT22;790;47.000;16.084;2022-07-10T01:23:33;19.10;99.90
1594;DHT22;790;47.000;16.084;2022-07-10T01:26:00;19.10;99.90
1594;DHT22;790;47.000;16.084;2022-07-10T01:28:29;19.10;99.90
1594;DHT22;790;47.000;16.084;2022-07-10T01:30:56;19.10;99.90
1594;DHT22;790;47.000;16.084;2022-07-10T01:33:23;19.10;99.90
1594;DHT22;790;47.000;16.084;2022-07-10T01:35:51;19.10;99.90
1594;DHT22;790;47.000;16.084;2022-07-10T01:38:19;19.10;99.90
1594;DHT22;790;47.000;16.084;2022-07-10T01:40:46;19.10;99.90
1594;DHT22;790;47.000;16.084;2022-07-10T01:43:13;19.20;99.90
1594;DHT22;790;47.000;16.084;2022-07-10T01:45:40;19.20;99.90
1594;DHT22;790;47.000;16.084;2022-07-10T01:48:09;19.20;99.90
1594;DHT22;790;47.000;16.084;2022-07-10T01:50:36;19.10;99.90
1594;DHT22;790;47.000;16.084;2022-07-10T01:53:04;19.10;99.90
1594;DHT22;790;47.000;16.084;2022-07-10T01:55:33;19.10;99.90
1594;DHT22;790;47.000;16.084;2022-07-10T01:58:00;19.10;99.90
1594;DHT22;790;47.000;16.084;2022-07-10T02:00:27;19.10;99.90
1594;DHT22;790;47.000;16.084;2022-07-10T02:02:54;19.10;99.90
1594;DHT22;790;47.000;16.084;2022-07-10T02:05:39;19.00;99.90
1594;DHT22;790;47.000;16.084;2022-07-10T02:08:06;19.00;99.90
1594;DHT22;790;47.000;16.084;2022-07-10T02:10:34;19.00;99.90
1594;DHT22;790;47.000;16.084;2022-07-10T02:13:01;18.90;99.90
1594;DHT22;790;47.000;16.084;2022-07-10T02:15:28;18.70;99.90
1594;DHT22;790;47.000;16.084;2022-07-10T02:17:55;18.50;99.90
1594;DHT22;790;47.000;16.084;2022-07-10T02:20:22;18.40;99.90
1594;DHT22;790;47.000;16.084;2022-07-10T02:22:51;18.30;99.90
1594;DHT22;790;47.000;16.084;2022-07-10T02:25:18;18.30;99.90
1594;DHT22;790;47.000;16.084;2022-07-10T02:27:46;18.20;99.90
1594;DHT22;790;47.000;16.084;2022-07-10T02:30:14;18.30;99.90
1594;DHT22;790;47.000;16.084;2022-07-10T02:32:41;18.20;99.90
1594;DHT22;790;47.000;16.084;2022-07-10T02:35:08;18.20;99.90
1594;DHT22;790;47.000;16.084;2022-07-10T02:37:35;17.90;99.90
1594;DHT22;790;47.000;16.084;2022-07-10T02:40:03;17.80;99.90
1594;DHT22;790;47.000;16.084;2022-07-10T02:42:30;17.60;99.90
1594;DHT22;790;47.000;16.084;2022-07-10T02:44:58;17.60;99.90
1594;DHT22;790;47.000;16.084;2022-07-10T02:47:26;17.60;99.90
1594;DHT22;790;47.000;16.084;2022-07-10T02:49:53;17.60;99.90
1594;DHT22;790;47.000;16.084;2022-07-10T02:52:20;17.50;99.90
1594;DHT22;790;47.000;16.084;2022-07-10T02:54:48;17.50;99.90
1594;DHT22;790;47.000;16.084;2022-07-10T02:57:16;17.60;99.90
1594;DHT22;790;47.000;16.084;2022-07-10T02:59:43;17.60;99.90
1594;DHT22;790;47.000;16.084;2022-07-10T03:02:12;17.40;99.90
1594;DHT22;790;47.000;16.084;2022-07-10T03:04:39;17.30;99.90
1594;DHT22;790;47.000;16.084;2022-07-10T03:07:07;17.20;99.90
1594;DHT22;790;47.000;16.084;2022-07-10T03:09:34;17.10;99.90
1594;DHT22;790;47.000;16.084;2022-07-10T03:12:02;16.90;99.90
1594;DHT22;790;47.000;16.084;2022-07-10T03:14:29;17.00;99.90
1594;DHT22;790;47.000;16.084;2022-07-10T03:16:56;17.00;99.90
1594;DHT22;790;47.000;16.084;2022-07-10T03:19:25;17.10;99.90
1594;DHT22;790;47.000;16.084;2022-07-10T03:21:52;17.10;99.90
1594;DHT22;790;47.000;16.084;2022-07-10T03:24:19;17.10;99.90
1594;DHT22;790;47.000;16.084;2022-07-10T03:26:46;17.10;99.90
1594;DHT22;790;47.000;16.084;2022-07-10T03:29:13;17.00;99.90
1594;DHT22;790;47.000;16.084;2022-07-10T03:31:41;17.10;99.90
1594;DHT22;790;47.000;16.084;2022-07-10T03:34:08;17.10;99.90
1594;DHT22;790;47.000;16.084;2022-07-10T03:36:37;17.20;99.90
1594;DHT22;790;47.000;16.084;2022-07-10T03:39:05;17.20;99.90
1594;DHT22;790;47.000;16.084;2022-07-10T03:41:32;17.20;99.90
1594;DHT22;790;47.000;16.084;2022-07-10T03:43:59;17.30;99.90
1594;DHT22;790;47.000;16.084;2022-07-10T03:46:26;17.30;99.90
1594;DHT22;790;47.000;16.084;2022-07-10T03:48:53;17.40;99.90
1594;DHT22;790;47.000;16.084;2022-07-10T03:51:20;17.50;99.90
1594;DHT22;790;47.000;16.084;2022-07-10T03:53:49;17.50;99.90
1594;DHT22;790;47.000;16.084;2022-07-10T03:56:16;17.60;99.90
1594;DHT22;790;47.000;16.084;2022-07-10T03:58:57;17.60;99.90
1594;DHT22;790;47.000;16.084;2022-07-10T04:01:24;17.50;99.90
1594;DHT22;790;47.000;16.084;2022-07-10T04:03:51;17.40;99.90
1594;DHT22;790;47.000;16.084;2022-07-10T04:06:18;17.30;99.90
1594;DHT22;790;47.000;16.084;2022-07-10T04:08:45;17.30;99.90
1594;DHT22;790;47.000;16.084;2022-07-10T04:11:14;17.30;99.90
1594;DHT22;790;47.000;16.084;2022-07-10T04:13:41;17.40;99.90
1594;DHT22;790;47.000;16.084;2022-07-10T04:16:08;17.50;99.90
1594;DHT22;790;47.000;16.084;2022-07-10T04:18:38;17.60;99.90
1594;DHT22;790;47.000;16.084;2022-07-10T04:21:05;17.60;99.90
1594;DHT22;790;47.000;16.084;2022-07-10T04:23:33;17.70;99.90
1594;DHT22;790;47.000;16.084;2022-07-10T04:26:00;17.80;99.90
1594;DHT22;790;47.000;16.084;2022-07-10T04:28:28;17.80;99.90
1594;DHT22;790;47.000;16.084;2022-07-10T04:30:56;17.80;99.90
1594;DHT22;790;47.000;16.084;2022-07-10T04:33:23;17.80;99.90
1594;DHT22;790;47.000;16.084;2022-07-10T04:35:50;17.90;99.90
1594;DHT22;790;47.000;16.084;2022-07-10T04:38:17;17.90;99.90
1594;DHT22;790;47.000;16.084;2022-07-10T04:40:44;17.90;99.90
1594;DHT22;790;47.000;16.084;2022-07-10T04:43:11;17.80;99.90
1594;DHT22;790;47.000;16.084;2022-07-10T04:45:40;17.80;99.90
1594;DHT22;790;47.000;16.084;2022-07-10T04:48:07;17.90;99.90
1594;DHT22;790;47.000;16.084;2022-07-10T04:50:34;17.90;99.90
1594;DHT22;790;47.000;16.084;2022-07-10T04:53:01;18.00;99.90
1594;DHT22;790;47.000;16.084;2022-07-10T04:55:28;18.10;99.90
1594;DHT22;790;47.000;16.084;2022-07-10T04:57:55;18.20;99.90
1594;DHT22;790;47.000;16.084;2022-07-10T05:00:22;18.30;99.90
1594;DHT22;790;47.000;16.084;2022-07-10T05:02:51;18.30;99.90
1594;DHT22;790;47.000;16.084;2022-07-10T05:05:18;18.40;99.90
1594;DHT22;790;47.000;16.084;2022-07-10T05:07:45;18.50;99.90
1594;DHT22;790;47.000;16.084;2022-07-10T05:10:12;18.50;99.90
1594;DHT22;790;47.000;16.084;2022-07-10T05:12:39;18.60;99.90
1594;DHT22;790;47.000;16.084;2022-07-10T05:15:07;18.50;99.90
1594;DHT22;790;47.000;16.084;2022-07-10T05:17:35;18.40;99.90
1594;DHT22;790;47.000;16.084;2022-07-10T05:20:04;18.40;99.90
1594;DHT22;790;47.000;16.084;2022-07-10T05:22:32;18.40;99.90
1594;DHT22;790;47.000;16.084;2022-07-10T05:24:59;18.40;99.90
1594;DHT22;790;47.000;16.084;2022-07-10T05:27:26;18.40;99.90
1594;DHT22;790;47.000;16.084;2022-07-10T05:29:53;18.50;99.90
1594;DHT22;790;47.000;16.084;2022-07-10T05:32:20;18.50;99.90
1594;DHT22;790;47.000;16.084;2022-07-10T05:34:47;18.40;99.90
1594;DHT22;790;47.000;16.084;2022-07-10T05:37:16;18.40;99.90
1594;DHT22;790;47.000;16.084;2022-07-10T05:39:43;18.40;99.90
1594;DHT22;790;47.000;16.084;2022-07-10T05:42:10;18.30;99.90
1594;DHT22;790;47.000;16.084;2022-07-10T05:44:38;18.30;99.90
1594;DHT22;790;47.000;16.084;2022-07-10T05:47:07;18.30;99.90
1594;DHT22;790;47.000;16.084;2022-07-10T05:49:34;18.40;99.90
1594;DHT22;790;47.000;16.084;2022-07-10T05:52:01;18.40;99.90
1594;DHT22;790;47.000;16.084;2022-07-10T05:54:30;18.50;99.90
1594;DHT22;790;47.000;16.084;2022-07-10T05:56:58;18.60;99.90
1594;DHT22;790;47.000;16.084;2022-07-10T05:59:25;18.50;99.90
1594;DHT22;790;47.000;16.084;2022-07-10T06:01:52;18.50;99.90
1594;DHT22;790;47.000;16.084;2022-07-10T06:04:20;18.60;99.90
1594;DHT22;790;47.000;16.084;2022-07-10T06:06:47;18.70;99.90
1594;DHT22;790;47.000;16.084;2022-07-10T06:09:14;18.70;99.90
1594;DHT22;790;47.000;16.084;2022-07-10T06:11:42;18.80;99.90
1594;DHT22;790;47.000;16.084;2022-07-10T06:14:11;18.80;99.90
1594;DHT22;790;47.000;16.084;2022-07-10T06:16:38;18.80;99.90
1594;DHT22;790;47.000;16.084;2022-07-10T06:19:05;18.90;99.90
1594;DHT22;790;47.000;16.084;2022-07-10T06:21:33;19.00;99.90
1594;DHT22;790;47.000;16.084;2022-07-10T06:24:00;19.00;99.90
1594;DHT22;790;47.000;16.084;2022-07-10T06:26:27;19.20;99.90
1594;DHT22;790;47.000;16.084;2022-07-10T06:28:56;19.10;99.90
1594;DHT22;790;47.000;16.084;2022-07-10T06:31:22;19.20;99.90
1594;DHT22;790;47.000;16.084;2022-07-10T06:33:50;19.20;99.90
1594;DHT22;790;47.000;16.084;2022-07-10T06:36:17;19.10;99.90
1594;DHT22;790;47.000;16.084;2022-07-10T06:38:44;19.10;99.90
1594;DHT22;790;47.000;16.084;2022-07-10T06:41:11;19.10;99.90
1594;DHT22;790;47.000;16.084;2022-07-10T06:43:38;19.10;99.90
1594;DHT22;790;47.000;16.084;2022-07-10T06:46:07;19.10;99.90
1594;DHT22;790;47.000;16.084;2022-07-10T06:48:34;19.20;99.90
1594;DHT22;790;47.000;16.084;2022-07-10T06:51:05;19.20;99.90
1594;DHT22;790;47.000;16.084;2022-07-10T06:53:33;19.30;99.90
1594;DHT22;790;47.000;16.084;2022-07-10T06:56:00;19.40;99.90
1594;DHT22;790;47.000;16.084;2022-07-10T06:58:28;19.50;99.90
1594;DHT22;790;47.000;16.084;2022-07-10T07:00:55;19.50;99.90
1594;DHT22;790;47.000;16.084;2022-07-10T07:03:24;19.50;99.90
1594;DHT22;790;47.000;16.084;2022-07-10T07:05:51;19.50;99.90
1594;DHT22;790;47.000;16.084;2022-07-10T07:08:18;19.60;99.90
1594;DHT22;790;47.000;16.084;2022-07-10T07:10:45;19.70;99.90
1594;DHT22;790;47.000;16.084;2022-07-10T07:13:13;19.70;99.90
1594;DHT22;790;47.000;16.084;2022-07-10T07:15:40;19.70;99.90
1594;DHT22;790;47.000;16.084;2022-07-10T07:18:13;19.70;99.90
1594;DHT22;790;47.000;16.084;2022-07-10T07:20:44;19.80;99.90
1594;DHT22;790;47.000;16.084;2022-07-10T07:23:29;19.90;99.90
1594;DHT22;790;47.000;16.084;2022-07-10T07:25:56;20.00;99.90
1594;DHT22;790;47.000;16.084;2022-07-10T07:28:24;20.10;99.90
1594;DHT22;790;47.000;16.084;2022-07-10T07:30:51;20.20;99.90
1594;DHT22;790;47.000;16.084;2022-07-10T07:33:18;20.30;99.90
1594;DHT22;790;47.000;16.084;2022-07-10T07:35:47;20.30;99.90
1594;DHT22;790;47.000;16.084;2022-07-10T07:38:14;20.40;99.90
1594;DHT22;790;47.000;16.084;2022-07-10T07:40:41;20.60;99.90
1594;DHT22;790;47.000;16.084;2022-07-10T07:43:09;20.50;99.90
1594;DHT22;790;47.000;16.084;2022-07-10T07:45:36;20.70;99.90
1594;DHT22;790;47.000;16.084;2022-07-10T07:48:03;20.90;99.90
1594;DHT22;790;47.000;16.084;2022-07-10T07:50:32;20.90;99.90
1594;DHT22;790;47.000;16.084;2022-07-10T07:53:02;21.00;99.90
1594;DHT22;790;47.000;16.084;2022-07-10T07:55:30;20.90;99.90
1594;DHT22;790;47.000;16.084;2022-07-10T07:57:58;21.00;99.90
1594;DHT22;790;47.000;16.084;2022-07-10T08:00:27;21.00;99.90
1594;DHT22;790;47.000;16.084;2022-07-10T08:02:56;21.00;99.90
1594;DHT22;790;47.000;16.084;2022-07-10T08:05:24;21.00;99.90
1594;DHT22;790;47.000;16.084;2022-07-10T08:08:11;21.10;99.90
1594;DHT22;790;47.000;16.084;2022-07-10T08:10:38;21.30;99.90
1594;DHT22;790;47.000;16.084;2022-07-10T08:13:06;21.30;99.90
1594;DHT22;790;47.000;16.084;2022-07-10T08:15:33;21.40;99.90
1594;DHT22;790;47.000;16.084;2022-07-10T08:18:03;21.50;99.90
1594;DHT22;790;47.000;16.084;2022-07-10T08:20:33;21.70;99.90
1594;DHT22;790;47.000;16.084;2022-07-10T08:23:00;21.80;99.90
1594;DHT22;790;47.000;16.084;2022-07-10T08:25:29;21.90;99.90
1594;DHT22;790;47.000;16.084;2022-07-10T08:28:01;21.80;99.90
1594;DHT22;790;47.000;16.084;2022-07-10T08:30:29;21.70;99.90
1594;DHT22;790;47.000;16.084;2022-07-10T08:32:56;21.80;99.90
1594;DHT22;790;47.000;16.084;2022-07-10T08:35:24;21.90;99.90
1594;DHT22;790;47.000;16.084;2022-07-10T08:37:51;22.10;99.90
1594;DHT22;790;47.000;16.084;2022-07-10T08:40:21;22.10;99.90
1594;DHT22;790;47.000;16.084;2022-07-10T08:42:50;22.20;99.90
1594;DHT22;790;47.000;16.084;2022-07-10T08:45:18;22.40;99.90
1594;DHT22;790;47.000;16.084;2022-07-10T08:47:45;22.60;99.90
1594;DHT22;790;47.000;16.084;2022-07-10T08:50:17;22.70;99.90
1594;DHT22;790;47.000;16.084;2022-07-10T08:52:51;23.00;99.90
1594;DHT22;790;47.000;16.084;2022-07-10T08:55:24;23.20;99.90
1594;DHT22;790;47.000;16.084;2022-07-10T08:57:54;23.40;99.90
1594;DHT22;790;47.000;16.084;2022-07-10T09:00:23;23.50;99.90
1594;DHT22;790;47.000;16.084;2022-07-10T09:02:50;23.60;99.90
1594;DHT22;790;47.000;16.084;2022-07-10T09:05:17;23.60;99.90
1594;DHT22;790;47.000;16.084;2022-07-10T09:07:45;23.60;99.90
1594;DHT22;790;47.000;16.084;2022-07-10T09:10:12;23.50;99.90
1594;DHT22;790;47.000;16.084;2022-07-10T09:12:56;23.40;99.90
1594;DHT22;790;47.000;16.084;2022-07-10T09:15:24;23.40;99.90
1594;DHT22;790;47.000;16.084;2022-07-10T09:17:53;23.30;99.90
1594;DHT22;790;47.000;16.084;2022-07-10T09:20:28;23.20;99.90
1594;DHT22;790;47.000;16.084;2022-07-10T09:22:57;23.10;99.90
1594;DHT22;790;47.000;16.084;2022-07-10T09:25:33;23.10;99.90
1594;DHT22;790;47.000;16.084;2022-07-10T09:28:02;22.90;99.90
1594;DHT22;790;47.000;16.084;2022-07-10T09:30:36;22.90;99.90
1594;DHT22;790;47.000;16.084;2022-07-10T09:33:21;22.80;99.90
1594;DHT22;790;47.000;16.084;2022-07-10T09:36:02;22.70;99.90
1594;DHT22;790;47.000;16.084;2022-07-10T09:38:53;22.60;99.90
1594;DHT22;790;47.000;16.084;2022-07-10T09:41:28;22.40;99.90
1594;DHT22;790;47.000;16.084;2022-07-10T09:44:05;22.40;99.90
1594;DHT22;790;47.000;16.084;2022-07-10T09:46:35;22.20;99.90
1594;DHT22;790;47.000;16.084;2022-07-10T09:49:08;22.10;99.90
1594;DHT22;790;47.000;16.084;2022-07-10T09:51:39;22.30;99.90
1594;DHT22;790;47.000;16.084;2022-07-10T09:54:10;22.20;99.90
1594;DHT22;790;47.000;16.084;2022-07-10T09:56:42;22.30;99.90
1594;DHT22;790;47.000;16.084;2022-07-10T09:59:13;22.40;99.90
1594;DHT22;790;47.000;16.084;2022-07-10T10:01:43;22.20;99.90
1594;DHT22;790;47.000;16.084;2022-07-10T10:04:13;22.20;99.90
1594;DHT22;790;47.000;16.084;2022-07-10T10:06:40;22.30;99.90
1594;DHT22;790;47.000;16.084;2022-07-10T10:09:12;22.20;99.90
1594;DHT22;790;47.000;16.084;2022-07-10T10:11:41;22.20;99.90
1594;DHT22;790;47.000;16.084;2022-07-10T10:14:15;22.40;99.90
1594;DHT22;790;47.000;16.084;2022-07-10T10:16:46;22.50;99.90
1594;DHT22;790;47.000;16.084;2022-07-10T10:19:15;22.50;99.90
1594;DHT22;790;47.000;16.084;2022-07-10T10:22:03;22.40;99.90
1594;DHT22;790;47.000;16.084;2022-07-10T10:24:32;22.50;99.90
1594;DHT22;790;47.000;16.084;2022-07-10T10:27:00;22.60;99.90
1594;DHT22;790;47.000;16.084;2022-07-10T10:29:29;22.80;99.90
1594;DHT22;790;47.000;16.084;2022-07-10T10:31:57;22.90;99.90
1594;DHT22;790;47.000;16.084;2022-07-10T10:34:41;23.00;99.90
1594;DHT22;790;47.000;16.084;2022-07-10T10:37:35;23.30;99.90
1594;DHT22;790;47.000;16.084;2022-07-10T10:40:06;23.70;99.90
1594;DHT22;790;47.000;16.084;2022-07-10T10:42:35;24.00;99.90
1594;DHT22;790;47.000;16.084;2022-07-10T10:45:33;24.10;99.90
1594;DHT22;790;47.000;16.084;2022-07-10T10:48:05;24.30;99.90
1594;DHT22;790;47.000;16.084;2022-07-10T10:50:38;24.20;99.90
1594;DHT22;790;47.000;16.084;2022-07-10T10:53:13;24.10;99.90
1594;DHT22;790;47.000;16.084;2022-07-10T10:58:24;23.80;99.90
1594;DHT22;790;47.000;16.084;2022-07-10T11:01:02;23.60;99.90
1594;DHT22;790;47.000;16.084;2022-07-10T11:03:34;23.60;99.90
1594;DHT22;790;47.000;16.084;2022-07-10T11:06:01;23.70;99.90
1594;DHT22;790;47.000;16.084;2022-07-10T11:08:37;23.80;99.90
1594;DHT22;790;47.000;16.084;2022-07-10T11:11:38;23.90;99.90
1594;DHT22;790;47.000;16.084;2022-07-10T11:14:11;23.90;99.90
1594;DHT22;790;47.000;16.084;2022-07-10T11:16:47;23.60;99.90
1594;DHT22;790;47.000;16.084;2022-07-10T11:19:21;23.60;99.90
1594;DHT22;790;47.000;16.084;2022-07-10T11:21:52;23.70;99.90
1594;DHT22;790;47.000;16.084;2022-07-10T11:24:39;23.60;99.90
1594;DHT22;790;47.000;16.084;2022-07-10T11:27:28;23.20;99.90
1594;DHT22;790;47.000;16.084;2022-07-10T11:29:59;23.00;99.90
1594;DHT22;790;47.000;16.084;2022-07-10T11:32:38;22.60;99.90
1594;DHT22;790;47.000;16.084;2022-07-10T11:35:06;22.30;99.90
1594;DHT22;790;47.000;16.084;2022-07-10T11:37:48;22.30;99.90
1594;DHT22;790;47.000;16.084;2022-07-10T11:40:17;22.30;99.90
1594;DHT22;790;47.000;16.084;2022-07-10T11:42:49;22.40;99.90
1594;DHT22;790;47.000;16.084;2022-07-10T11:45:28;22.50;99.90
1594;DHT22;790;47.000;16.084;2022-07-10T11:48:16;22.50;99.90
1594;DHT22;790;47.000;16.084;2022-07-10T11:50:44;22.60;99.90
1594;DHT22;790;47.000;16.084;2022-07-10T11:53:12;22.70;99.90
1594;DHT22;790;47.000;16.084;2022-07-10T11:55:40;22.90;99.90
1594;DHT22;790;47.000;16.084;2022-07-10T11:58:15;23.10;99.90
1594;DHT22;790;47.000;16.084;2022-07-10T12:00:44;23.10;99.90
1594;DHT22;790;47.000;16.084;2022-07-10T12:03:25;23.30;99.90
1594;DHT22;790;47.000;16.084;2022-07-10T12:05:52;22.90;99.90
1594;DHT22;790;47.000;16.084;2022-07-10T12:08:19;22.70;99.90
1594;DHT22;790;47.000;16.084;2022-07-10T12:10:46;22.70;99.90
1594;DHT22;790;47.000;16.084;2022-07-10T12:13:15;22.90;99.90
1594;DHT22;790;47.000;16.084;2022-07-10T12:15:57;23.00;99.90
1594;DHT22;790;47.000;16.084;2022-07-10T12:18:31;23.00;99.90
1594;DHT22;790;47.000;16.084;2022-07-10T12:20:59;23.00;99.90
1594;DHT22;790;47.000;16.084;2022-07-10T12:23:28;22.80;99.90
1594;DHT22;790;47.000;16.084;2022-07-10T12:25:56;22.80;99.90
1594;DHT22;790;47.000;16.084;2022-07-10T12:28:23;22.60;99.90
1594;DHT22;790;47.000;16.084;2022-07-10T12:30:52;22.60;99.90
1594;DHT22;790;47.000;16.084;2022-07-10T12:33:29;22.90;99.90
1594;DHT22;790;47.000;16.084;2022-07-10T12:36:07;23.00;99.90
1594;DHT22;790;47.000;16.084;2022-07-10T12:38:35;23.10;99.90
1594;DHT22;790;47.000;16.084;2022-07-10T12:41:19;22.90;99.90
1594;DHT22;790;47.000;16.084;2022-07-10T12:43:50;22.80;99.90
1594;DHT22;790;47.000;16.084;2022-07-10T12:46:19;22.70;99.90
1594;DHT22;790;47.000;16.084;2022-07-10T12:49:16;22.80;99.90
1594;DHT22;790;47.000;16.084;2022-07-10T12:51:45;23.10;99.90
1594;DHT22;790;47.000;16.084;2022-07-10T12:54:31;23.30;99.90
1594;DHT22;790;47.000;16.084;2022-07-10T12:57:00;23.30;99.90
1594;DHT22;790;47.000;16.084;2022-07-10T12:59:28;23.10;99.90
1594;DHT22;790;47.000;16.084;2022-07-10T13:01:56;23.10;99.90
1594;DHT22;790;47.000;16.084;2022-07-10T13:04:26;23.10;99.90
1594;DHT22;790;47.000;16.084;2022-07-10T13:07:12;23.20;99.90
1594;DHT22;790;47.000;16.084;2022-07-10T13:09:42;23.30;99.90
1594;DHT22;790;47.000;16.084;2022-07-10T13:12:10;23.10;99.90
1594;DHT22;790;47.000;16.084;2022-07-10T13:14:37;23.00;99.90
1594;DHT22;790;47.000;16.084;2022-07-10T13:17:06;23.00;99.90
1594;DHT22;790;47.000;16.084;2022-07-10T13:19:41;23.10;99.90
1594;DHT22;790;47.000;16.084;2022-07-10T13:22:11;23.20;99.90
1594;DHT22;790;47.000;16.084;2022-07-10T13:24:40;23.30;99.90
1594;DHT22;790;47.000;16.084;2022-07-10T13:27:08;23.20;99.90
1594;DHT22;790;47.000;16.084;2022-07-10T13:29:36;23.30;99.90
1594;DHT22;790;47.000;16.084;2022-07-10T13:32:05;23.20;99.90
1594;DHT22;790;47.000;16.084;2022-07-10T13:34:33;23.30;99.90
1594;DHT22;790;47.000;16.084;2022-07-10T13:37:10;23.40;99.90
1594;DHT22;790;47.000;16.084;2022-07-10T13:39:39;23.70;99.90
1594;DHT22;790;47.000;16.084;2022-07-10T13:42:06;23.80;99.90
1594;DHT22;790;47.000;16.084;2022-07-10T13:44:33;23.90;99.90
1594;DHT22;790;47.000;16.084;2022-07-10T13:47:00;24.00;99.90
1594;DHT22;790;47.000;16.084;2022-07-10T13:49:27;23.70;99.90
1594;DHT22;790;47.000;16.084;2022-07-10T13:51:54;23.70;99.90
1594;DHT22;790;47.000;16.084;2022-07-10T13:54:23;23.80;99.90
1594;DHT22;790;47.000;16.084;2022-07-10T13:56:50;23.80;99.90
1594;DHT22;790;47.000;16.084;2022-07-10T13:59:17;23.80;99.90
1594;DHT22;790;47.000;16.084;2022-07-10T14:01:44;23.60;99.90
1594;DHT22;790;47.000;16.084;2022-07-10T14:04:12;23.60;99.90
1594;DHT22;790;47.000;16.084;2022-07-10T14:06:39;23.60;99.90
1594;DHT22;790;47.000;16.084;2022-07-10T14:09:06;23.60;99.90
1594;DHT22;790;47.000;16.084;2022-07-10T14:11:35;23.50;99.90
1594;DHT22;790;47.000;16.084;2022-07-10T14:14:03;23.60;99.90
1594;DHT22;790;47.000;16.084;2022-07-10T14:16:30;23.60;99.90
1594;DHT22;790;47.000;16.084;2022-07-10T14:18:57;23.60;99.90
1594;DHT22;790;47.000;16.084;2022-07-10T14:21:24;23.40;99.90
1594;DHT22;790;47.000;16.084;2022-07-10T14:24:05;23.30;99.90
1594;DHT22;790;47.000;16.084;2022-07-10T14:26:37;23.30;99.90
1594;DHT22;790;47.000;16.084;2022-07-10T14:29:13;23.20;99.90
1594;DHT22;790;47.000;16.084;2022-07-10T14:31:41;23.10;99.90
1594;DHT22;790;47.000;16.084;2022-07-10T14:34:16;23.00;99.90
1594;DHT22;790;47.000;16.084;2022-07-10T14:36:44;23.10;99.90
1594;DHT22;790;47.000;16.084;2022-07-10T14:39:13;23.20;99.90
1594;DHT22;790;47.000;16.084;2022-07-10T14:41:44;23.30;99.90
1594;DHT22;790;47.000;16.084;2022-07-10T14:44:12;23.50;99.90
1594;DHT22;790;47.000;16.084;2022-07-10T14:46:41;23.50;99.90
1594;DHT22;790;47.000;16.084;2022-07-10T14:49:10;23.70;99.90
1594;DHT22;790;47.000;16.084;2022-07-10T14:51:38;23.80;99.90
1594;DHT22;790;47.000;16.084;2022-07-10T14:54:06;23.80;99.90
1594;DHT22;790;47.000;16.084;2022-07-10T14:56:36;23.90;99.90
1594;DHT22;790;47.000;16.084;2022-07-10T14:59:06;23.90;99.90
1594;DHT22;790;47.000;16.084;2022-07-10T15:01:33;23.70;99.90
1594;DHT22;790;47.000;16.084;2022-07-10T15:04:00;23.40;99.90
1594;DHT22;790;47.000;16.084;2022-07-10T15:06:31;22.90;99.90
1594;DHT22;790;47.000;16.084;2022-07-10T15:09:00;22.30;99.90
1594;DHT22;790;47.000;16.084;2022-07-10T15:11:28;22.10;99.90
1594;DHT22;790;47.000;16.084;2022-07-10T15:13:55;22.20;99.90
1594;DHT22;790;47.000;16.084;2022-07-10T15:16:37;22.10;99.90
1594;DHT22;790;47.000;16.084;2022-07-10T15:22:37;21.70;99.90
1594;DHT22;790;47.000;16.084;2022-07-10T15:25:49;21.60;99.90
1594;DHT22;790;47.000;16.084;2022-07-10T15:31:53;21.40;99.90
1594;DHT22;790;47.000;16.084;2022-07-10T15:34:29;21.30;99.90
1594;DHT22;790;47.000;16.084;2022-07-10T15:36:58;21.20;99.90
1594;DHT22;790;47.000;16.084;2022-07-10T15:39:25;21.10;99.90
1594;DHT22;790;47.000;16.084;2022-07-10T15:41:52;20.90;99.90
1594;DHT22;790;47.000;16.084;2022-07-10T15:44:19;21.00;99.90
1594;DHT22;790;47.000;16.084;2022-07-10T15:46:47;21.10;99.90
1594;DHT22;790;47.000;16.084;2022-07-10T15:49:18;21.30;99.90
1594;DHT22;790;47.000;16.084;2022-07-10T15:51:47;21.50;99.90
1594;DHT22;790;47.000;16.084;2022-07-10T15:54:15;21.70;99.90
1594;DHT22;790;47.000;16.084;2022-07-10T15:56:44;21.90;99.90
1594;DHT22;790;47.000;16.084;2022-07-10T15:59:11;22.10;99.90
1594;DHT22;790;47.000;16.084;2022-07-10T16:01:38;22.30;99.90
1594;DHT22;790;47.000;16.084;2022-07-10T16:04:06;22.50;99.90
1594;DHT22;790;47.000;16.084;2022-07-10T16:06:34;22.40;99.90
1594;DHT22;790;47.000;16.084;2022-07-10T16:09:03;22.30;99.90
1594;DHT22;790;47.000;16.084;2022-07-10T16:11:30;22.30;99.90
1594;DHT22;790;47.000;16.084;2022-07-10T16:13:57;22.30;99.90
1594;DHT22;790;47.000;16.084;2022-07-10T16:16:24;22.20;99.90
1594;DHT22;790;47.000;16.084;2022-07-10T16:18:51;22.20;99.90
1594;DHT22;790;47.000;16.084;2022-07-10T16:21:18;22.20;99.90
1594;DHT22;790;47.000;16.084;2022-07-10T16:23:48;22.10;99.90
1594;DHT22;790;47.000;16.084;2022-07-10T16:26:15;22.10;99.90
1594;DHT22;790;47.000;16.084;2022-07-10T16:28:42;22.20;99.90